Time;durP1;ratioP1;P1;durP2;ratioP2;P2;SDS_P1;SDS_P2;PMS_P1;PMS_P2;Temp;Humidity;BMP_temperature;BMP_pressure;BME280_temperature;BME280_humidity;BME280_pressure;Samples;Min_cycle;Max_cycle;Signal;HPM_P1;HPM_P2
2021/11/07 00:00:22;;;;;;;;;35.75;28.25;;;;;11.29;60.32;102168.91;5060461;28;45709;-67
2021/11/07 00:05:31;;;;;;;;;27.50;26.00;;;;;11.33;59.90;102162.63;5060135;28;45322;-67
2021/11/07 00:10:51;;;;;;;;;31.75;28.50;;;;;11.34;60.02;102163.50;5060086;28;45404;-67
2021/11/07 00:13:25;;;;;;;;;26.50;24.50;;;;;11.35;60.10;102166.16;5060071;28;45436;-66
2021/11/07 00:15:52;;;;;;;;;27.50;26.50;;;;;11.38;60.03;102170.59;5058541;28;46124;-67
2021/11/07 00:18:41;;;;;;;;;33.25;28.50;;;;;11.40;60.40;102171.47;5059585;28;45334;-67
2021/11/07 00:21:26;;;;;;;;;33.25;28.25;;;;;11.38;59.95;102159.91;5060231;28;45463;-67
2021/11/07 00:29:08;;;;;;;;;28.75;26.75;;;;;11.35;60.89;102134.09;5059734;28;45405;-67
2021/11/07 00:36:31;;;;;;;;;26.75;24.00;;;;;11.39;60.40;102146.50;5059420;28;46330;-67
2021/11/07 00:39:11;;;;;;;;;26.00;22.00;;;;;11.38;60.65;102139.41;5059998;28;45311;-67
2021/11/07 00:41:50;;;;;;;;;26.00;24.50;;;;;11.37;60.49;102140.28;5059731;28;45373;-67
2021/11/07 00:44:22;;;;;;;;;25.50;24.00;;;;;11.37;60.54;102137.63;5059679;28;45465;-67
2021/11/07 00:46:55;;;;;;;;;25.50;22.50;;;;;11.41;60.37;102135.78;5058651;28;46358;-67
2021/11/07 00:49:26;;;;;;;;;25.50;25.25;;;;;11.42;60.88;102134.88;5059300;28;45314;-67
2021/11/07 00:54:31;;;;;;;;;23.75;20.75;;;;;11.42;60.87;102134.88;5059521;28;45494;-67
2021/11/07 00:57:21;;;;;;;;;21.00;20.50;;;;;11.43;61.18;102132.19;5059354;28;46962;-67
2021/11/07 01:00:04;;;;;;;;;21.50;21.50;;;;;11.48;60.64;102140.16;5045660;28;45871;-67
2021/11/07 01:02:35;;;;;;;;;18.00;16.25;;;;;11.50;60.91;102138.34;5059374;28;45393;-67
2021/11/07 01:05:08;;;;;;;;;20.50;17.00;;;;;11.52;61.17;102122.28;5059529;28;45342;-67
2021/11/07 01:07:34;;;;;;;;;14.00;13.00;;;;;11.54;61.00;102120.47;5059330;28;45370;-67
2021/11/07 01:09:59;;;;;;;;;17.50;15.00;;;;;11.56;60.82;102111.53;5060116;28;45243;-67
2021/11/07 01:12:25;;;;;;;;;17.50;16.25;;;;;11.58;60.50;102106.16;5062989;28;45476;-67
2021/11/07 01:14:54;;;;;;;;;19.75;17.25;;;;;11.59;60.71;102105.22;5063016;28;45335;-67
2021/11/07 01:17:19;;;;;;;;;18.00;18.00;;;;;11.61;60.84;102098.06;5061899;28;45442;-67
2021/11/07 01:19:45;;;;;;;;;17.00;17.00;;;;;11.58;60.92;102091.00;5062933;28;45374;-67
2021/11/07 01:22:16;;;;;;;;;20.25;18.75;;;;;11.63;60.73;102090.94;5059300;28;45382;-67
2021/11/07 01:24:52;;;;;;;;;15.00;15.00;;;;;11.62;61.04;102086.47;5053507;28;45314;-67
2021/11/07 01:27:26;;;;;;;;;17.00;17.00;;;;;11.66;61.23;102074.81;5061492;28;46655;-67
2021/11/07 01:29:55;;;;;;;;;18.75;17.75;;;;;11.66;61.15;102075.72;5062437;28;45321;-67
2021/11/07 01:32:23;;;;;;;;;15.50;15.25;;;;;11.66;61.17;102070.34;5049736;28;45280;-67
2021/11/07 01:37:41;;;;;;;;;12.25;11.00;;;;;11.68;61.35;102056.97;5051458;28;45251;-67
2021/11/07 01:40:17;;;;;;;;;13.50;11.75;;;;;11.74;61.24;102054.16;5060598;28;45437;-66
2021/11/07 01:42:53;;;;;;;;;13.75;11.75;;;;;11.76;61.20;102049.69;5062724;28;45219;-66
2021/11/07 01:45:30;;;;;;;;;13.25;12.00;;;;;11.81;61.06;102044.25;5049938;28;45358;-67
2021/11/07 01:48:14;;;;;;;;;13.25;11.00;;;;;11.81;61.47;102034.44;5061131;28;46108;-66
2021/11/07 01:50:45;;;;;;;;;13.50;11.25;;;;;11.82;61.32;102025.50;5062175;28;45535;-67
2021/11/07 01:53:26;;;;;;;;;13.00;11.75;;;;;11.86;61.59;102039.69;5062185;28;45431;-67
2021/11/07 01:55:52;;;;;;;;;12.25;10.25;;;;;11.87;61.38;102036.13;5061160;28;45658;-67
2021/11/07 01:58:18;;;;;;;;;15.00;12.50;;;;;11.90;61.44;102036.09;5061694;28;46491;-67
2021/11/07 02:00:44;;;;;;;;;13.00;13.00;;;;;11.93;61.66;102043.19;5061966;28;45738;-67
2021/11/07 02:03:12;;;;;;;;;11.25;9.00;;;;;11.91;61.31;102028.94;5061985;28;45319;-67
2021/11/07 02:05:37;;;;;;;;;12.75;11.50;;;;;11.95;61.57;102041.41;5062049;28;45221;-67
2021/11/07 02:08:06;;;;;;;;;9.75;8.25;;;;;11.94;61.55;102031.59;5062020;28;45334;-67
2021/11/07 02:10:31;;;;;;;;;12.75;11.75;;;;;11.97;61.25;102028.88;5061791;28;45339;-67
2021/11/07 02:12:57;;;;;;;;;10.75;10.50;;;;;11.99;61.54;102021.69;5062219;28;45378;-67
2021/11/07 02:15:23;;;;;;;;;10.50;10.25;;;;;12.00;61.72;102023.47;5048362;28;45370;-67
2021/11/07 02:17:48;;;;;;;;;11.50;11.00;;;;;12.03;61.43;102018.94;5060997;28;46445;-67
2021/11/07 02:20:29;;;;;;;;;10.00;9.50;;;;;12.06;61.71;102017.97;5061539;28;45362;-67
2021/11/07 02:22:55;;;;;;;;;10.75;9.75;;;;;12.06;61.77;102015.31;5052367;28;45339;-67
2021/11/07 02:25:20;;;;;;;;;11.00;11.00;;;;;12.04;61.91;101998.41;5057838;28;45354;-67
2021/11/07 02:27:46;;;;;;;;;9.75;8.75;;;;;12.09;61.92;102007.22;5061567;28;45239;-67
2021/11/07 02:30:14;;;;;;;;;10.50;7.25;;;;;12.16;61.57;102019.59;5061504;28;45321;-67
2021/11/07 02:32:42;;;;;;;;;11.00;8.25;;;;;12.21;62.09;102019.50;5061550;28;45549;-67
2021/11/07 02:35:07;;;;;;;;;11.75;10.75;;;;;12.19;61.75;102011.47;5060264;28;45447;-67
2021/11/07 02:37:33;;;;;;;;;10.25;10.25;;;;;12.25;61.84;102006.97;5061116;28;46145;-67
2021/11/07 02:39:58;;;;;;;;;12.25;10.00;;;;;12.26;62.10;102006.03;5061537;28;45232;-67
2021/11/07 02:42:24;;;;;;;;;10.50;9.75;;;;;12.27;62.27;101994.41;5051718;28;45731;-67
2021/11/07 02:44:49;;;;;;;;;11.00;7.25;;;;;12.28;62.13;101993.47;5058071;28;45168;-67
2021/11/07 02:47:17;;;;;;;;;10.00;9.75;;;;;12.29;62.48;101990.78;5056057;28;45332;-67
2021/11/07 02:49:44;;;;;;;;;13.25;11.50;;;;;12.31;62.35;101980.03;5060975;28;45663;-67
2021/11/07 02:52:12;;;;;;;;;13.50;10.50;;;;;12.31;62.48;101985.41;5061517;28;45414;-67
2021/11/07 02:54:39;;;;;;;;;10.50;10.25;;;;;12.27;62.55;101975.69;5061298;28;45536;-67
2021/11/07 02:57:09;;;;;;;;;10.00;10.00;;;;;12.27;63.06;101978.34;5060839;28;45235;-67
2021/11/07 02:59:38;;;;;;;;;13.25;11.25;;;;;12.29;62.98;101973.84;5061115;28;45476;-67
2021/11/07 03:02:06;;;;;;;;;12.00;11.00;;;;;12.28;63.31;101969.38;5060880;28;45420;-67
2021/11/07 03:04:32;;;;;;;;;8.25;8.25;;;;;12.28;63.27;101974.75;5061100;28;45279;-67
2021/11/07 03:06:58;;;;;;;;;16.00;13.00;;;;;12.30;63.31;101973.81;5061162;28;45302;-66
2021/11/07 03:09:27;;;;;;;;;13.00;12.00;;;;;12.29;63.54;101971.16;5060918;28;45353;-67
2021/11/07 03:11:55;;;;;;;;;12.25;11.25;;;;;12.29;63.63;101974.72;5061248;28;45819;-67
2021/11/07 03:14:25;;;;;;;;;11.50;11.50;;;;;12.27;63.64;101960.47;5047837;28;45601;-67
2021/11/07 03:16:51;;;;;;;;;11.50;11.50;;;;;12.23;63.80;101954.31;5054836;28;47598;-67
2021/11/07 03:19:19;;;;;;;;;11.75;11.00;;;;;12.30;64.08;101968.47;5060953;28;45251;-67
2021/11/07 03:21:45;;;;;;;;;12.50;9.25;;;;;12.28;63.83;101956.91;5061009;28;45208;-67
2021/11/07 03:24:12;;;;;;;;;11.00;11.00;;;;;12.31;63.96;101963.97;5040834;28;45402;-67
2021/11/07 03:26:39;;;;;;;;;12.00;10.75;;;;;12.30;64.15;101959.56;5055318;28;45342;-67
2021/11/07 03:29:07;;;;;;;;;12.00;12.00;;;;;12.31;63.91;101955.94;5060789;28;45580;-67
2021/11/07 03:34:35;;;;;;;;;13.75;12.00;;;;;12.33;64.21;101956.78;5059950;28;45372;-67
2021/11/07 03:37:02;;;;;;;;;15.25;13.50;;;;;12.33;64.16;101951.44;5059956;28;45880;-67
2021/11/07 03:39:30;;;;;;;;;12.25;11.00;;;;;12.32;64.40;101952.38;5060531;28;45419;-67
2021/11/07 03:41:56;;;;;;;;;8.50;8.50;;;;;12.30;64.34;101951.53;5060850;28;45322;-67
2021/11/07 03:44:22;;;;;;;;;11.75;11.75;;;;;12.30;64.31;101952.41;5060442;28;45556;-67
2021/11/07 03:46:50;;;;;;;;;11.00;10.00;;;;;12.31;64.62;101953.28;5059904;28;46569;-67
2021/11/07 03:49:16;;;;;;;;;13.25;10.75;;;;;12.33;64.47;101957.69;5060150;28;45532;-67
2021/11/07 03:51:44;;;;;;;;;12.50;11.75;;;;;12.31;64.46;101955.94;5060673;28;45359;-67
2021/11/07 03:54:11;;;;;;;;;11.50;11.25;;;;;12.31;64.66;101955.94;5060345;28;45159;-67
2021/11/07 03:56:37;;;;;;;;;15.75;11.00;;;;;12.28;64.77;101950.66;5060269;28;45334;-67
2021/11/07 03:59:06;;;;;;;;;13.50;12.75;;;;;12.26;64.92;101945.31;5060256;28;45405;-67
2021/11/07 04:01:32;;;;;;;;;13.25;10.50;;;;;12.26;64.86;101955.16;5060105;28;45347;-67
2021/11/07 04:03:58;;;;;;;;;12.75;11.50;;;;;12.27;65.01;101951.56;5060160;28;45679;-67
2021/11/07 04:06:25;;;;;;;;;16.25;13.25;;;;;12.27;64.84;101963.16;5060260;28;46295;-67
2021/11/07 04:08:50;;;;;;;;;15.25;13.50;;;;;12.28;64.95;101950.66;5046774;28;45307;-67
2021/11/07 04:11:16;;;;;;;;;13.50;13.25;;;;;12.31;65.16;101947.91;5059872;28;45531;-67
2021/11/07 04:13:42;;;;;;;;;14.75;12.75;;;;;12.28;64.90;101942.63;5059506;28;45446;-67
2021/11/07 04:16:09;;;;;;;;;17.75;15.75;;;;;12.29;65.09;101941.72;5051197;28;45476;-67
2021/11/07 04:18:37;;;;;;;;;14.50;14.00;;;;;12.27;65.08;101940.88;5052965;28;45652;-67
2021/11/07 04:21:03;;;;;;;;;13.75;11.75;;;;;12.29;65.11;101947.06;5049152;28;45302;-67
2021/11/07 04:23:28;;;;;;;;;15.00;14.75;;;;;12.30;64.82;101940.81;5046634;28;45445;-67
2021/11/07 04:25:54;;;;;;;;;14.00;13.00;;;;;12.29;65.31;101929.19;5059794;28;46453;-67
2021/11/07 04:28:20;;;;;;;;;16.00;14.75;;;;;12.29;65.18;101928.31;5059951;28;45333;-67
2021/11/07 04:30:46;;;;;;;;;13.25;13.25;;;;;12.28;65.17;101930.13;5059998;28;45429;-67
2021/11/07 04:33:11;;;;;;;;;17.25;16.25;;;;;12.29;65.07;101934.56;5059520;28;45219;-67
2021/11/07 04:35:36;;;;;;;;;14.50;14.25;;;;;12.27;65.24;101932.84;5059350;28;46164;-67
2021/11/07 04:38:03;;;;;;;;;16.25;14.75;;;;;12.29;65.23;101928.31;5059445;28;45384;-68
2021/11/07 04:40:28;;;;;;;;;15.00;14.25;;;;;12.25;65.00;101922.16;5059769;28;45589;-67
2021/11/07 04:42:54;;;;;;;;;15.00;13.75;;;;;12.25;65.21;101921.28;5059618;28;45380;-67
2021/11/07 04:45:20;;;;;;;;;15.25;12.50;;;;;12.28;65.17;101926.56;5062332;28;46194;-67
2021/11/07 04:47:47;;;;;;;;;15.75;14.75;;;;;12.27;65.31;101919.47;5062741;28;45290;-67
2021/11/07 04:50:17;;;;;;;;;15.00;15.00;;;;;12.23;65.23;101907.94;5062761;28;45171;-67
2021/11/07 04:52:43;;;;;;;;;13.00;13.00;;;;;12.25;65.25;101921.28;5063007;28;45603;-67
2021/11/07 04:55:09;;;;;;;;;19.00;16.50;;;;;12.24;65.26;101917.72;5063153;28;45460;-67
2021/11/07 04:57:41;;;;;;;;;15.50;14.75;;;;;12.21;65.11;101909.72;5063144;28;45677;-67
2021/11/07 05:00:17;;;;;;;;;12.00;12.00;;;;;12.21;65.37;101901.69;5062635;28;45338;-67
2021/11/07 05:02:43;;;;;;;;;14.50;14.50;;;;;12.19;65.77;101893.69;5062406;28;45640;-67
2021/11/07 05:05:09;;;;;;;;;16.25;15.25;;;;;12.18;65.65;101893.75;5063076;28;45481;-67
2021/11/07 05:07:35;;;;;;;;;15.50;14.00;;;;;12.18;65.29;101893.75;5062326;28;45437;-67
2021/11/07 05:10:00;;;;;;;;;13.50;11.50;;;;;12.12;65.45;101886.72;5062860;28;45413;-67
2021/11/07 05:12:28;;;;;;;;;14.25;12.50;;;;;12.16;65.64;101882.19;5062909;28;45363;-67
2021/11/07 05:14:54;;;;;;;;;16.25;14.75;;;;;12.13;65.65;101869.75;5062865;28;46184;-67
2021/11/07 05:17:20;;;;;;;;;13.50;13.50;;;;;12.17;65.43;101881.28;5062341;28;45241;-67
2021/11/07 05:19:45;;;;;;;;;13.50;12.25;;;;;12.15;65.60;101875.09;5063072;28;45241;-67
2021/11/07 05:22:11;;;;;;;;;11.75;11.00;;;;;12.18;65.63;101869.66;5059251;28;45173;-67
2021/11/07 05:24:36;;;;;;;;;14.75;13.50;;;;;12.16;65.93;101863.44;5051874;28;45150;-67
2021/11/07 05:27:02;;;;;;;;;11.75;11.75;;;;;12.13;65.82;101861.72;5060351;28;45230;-67
2021/11/07 05:29:27;;;;;;;;;15.00;14.00;;;;;12.18;66.00;101873.22;5062652;28;45327;-67
2021/11/07 05:31:53;;;;;;;;;14.25;11.00;;;;;12.20;65.60;101874.06;5062110;28;45299;-67
2021/11/07 05:34:19;;;;;;;;;12.25;12.00;;;;;12.21;65.75;101873.16;5062611;28;45535;-67
2021/11/07 05:36:45;;;;;;;;;15.50;14.00;;;;;12.22;65.83;101872.22;5062696;28;45302;-67
2021/11/07 05:39:12;;;;;;;;;11.50;11.50;;;;;12.21;65.68;101866.91;5062525;28;45310;-67
2021/11/07 05:41:38;;;;;;;;;14.00;13.25;;;;;12.26;65.70;101866.81;5062309;28;45485;-67
2021/11/07 05:44:04;;;;;;;;;15.00;14.50;;;;;12.26;65.90;101866.81;5062178;28;46080;-67
2021/11/07 05:46:29;;;;;;;;;18.75;14.50;;;;;12.22;66.02;101853.50;5053360;28;45355;-67
2021/11/07 05:48:55;;;;;;;;;11.50;10.75;;;;;12.25;66.01;101857.03;5057674;28;45310;-67
2021/11/07 05:51:20;;;;;;;;;15.25;15.00;;;;;12.25;66.01;101855.22;5062371;28;45299;-67
2021/11/07 05:53:45;;;;;;;;;14.00;14.00;;;;;12.25;65.72;101855.22;5062161;28;46078;-67
2021/11/07 05:56:11;;;;;;;;;14.75;13.00;;;;;12.28;65.81;101859.63;5061468;28;45368;-67
2021/11/07 05:58:36;;;;;;;;;15.00;13.00;;;;;12.28;65.92;101851.59;5062388;28;45386;-67
2021/11/07 06:01:03;;;;;;;;;15.75;15.25;;;;;12.27;66.05;101856.06;5061970;28;45319;-67
2021/11/07 06:03:29;;;;;;;;;14.75;13.75;;;;;12.25;65.77;101857.03;5061830;28;46532;-67
2021/11/07 06:05:54;;;;;;;;;11.25;11.25;;;;;12.23;66.00;101855.25;5062268;28;45366;-67
2021/11/07 06:08:20;;;;;;;;;14.00;13.00;;;;;12.26;65.92;101869.50;5058481;28;46646;-67
2021/11/07 06:10:45;;;;;;;;;15.25;14.25;;;;;12.21;65.88;101862.44;5061165;28;46607;-67
2021/11/07 06:13:11;;;;;;;;;11.75;11.50;;;;;12.21;65.67;101865.13;5061139;28;46119;-67
2021/11/07 06:15:36;;;;;;;;;13.25;13.25;;;;;12.26;66.06;101861.47;5061891;28;45569;-67
2021/11/07 06:18:02;;;;;;;;;12.00;12.00;;;;;12.23;65.99;101859.75;5061534;28;45331;-67
2021/11/07 06:20:27;;;;;;;;;13.50;11.75;;;;;12.26;66.08;101870.34;5062018;28;45270;-67
2021/11/07 06:22:52;;;;;;;;;15.75;13.25;;;;;12.27;66.13;101887.31;5052566;28;45410;-67
2021/11/07 06:25:18;;;;;;;;;13.75;13.00;;;;;12.26;65.78;101878.38;5057252;28;45400;-67
2021/11/07 06:27:43;;;;;;;;;17.50;14.00;;;;;12.29;66.26;101877.47;5060337;28;45591;-67
2021/11/07 06:30:10;;;;;;;;;14.25;14.00;;;;;12.27;65.97;101874.81;5060614;28;45394;-67
2021/11/07 06:32:37;;;;;;;;;16.25;14.75;;;;;12.29;66.29;101874.78;5060963;28;46298;-67
2021/11/07 06:35:05;;;;;;;;;12.25;12.25;;;;;12.30;65.91;101879.25;5061739;28;45575;-67
2021/11/07 06:37:31;;;;;;;;;15.25;14.25;;;;;12.28;66.40;101873.91;5061508;28;45275;-67
2021/11/07 06:39:57;;;;;;;;;20.25;14.00;;;;;12.25;66.04;101868.63;5061289;28;45292;-67
2021/11/07 06:42:22;;;;;;;;;16.75;14.00;;;;;12.27;66.24;101865.91;5061071;28;45239;-67
2021/11/07 06:44:48;;;;;;;;;15.00;14.00;;;;;12.28;66.37;101862.28;5061544;28;45237;-67
2021/11/07 06:47:13;;;;;;;;;16.25;14.00;;;;;12.29;66.39;101853.38;5051058;28;45583;-67
2021/11/07 06:49:39;;;;;;;;;13.75;13.00;;;;;12.29;66.12;101848.88;5059797;28;45683;-67
2021/11/07 06:52:05;;;;;;;;;15.25;15.25;;;;;12.32;66.07;101851.50;5076705;28;47242;-67
2021/11/07 06:54:31;;;;;;;;;13.25;13.25;;;;;12.31;66.07;101846.19;5061600;28;45386;-67
2021/11/07 06:56:57;;;;;;;;;15.25;13.25;;;;;12.30;66.07;101845.31;5061152;28;45343;-67
2021/11/07 06:59:23;;;;;;;;;18.25;14.75;;;;;12.30;66.15;101842.63;5060666;28;45538;-67
2021/11/07 07:01:48;;;;;;;;;17.00;16.25;;;;;12.36;66.32;101849.63;5060446;28;46290;-67
2021/11/07 07:04:14;;;;;;;;;15.50;15.00;;;;;12.36;66.45;101844.28;5061000;28;45366;-67
2021/11/07 07:06:39;;;;;;;;;17.50;14.25;;;;;12.36;66.41;101844.28;5060658;28;45389;-67
2021/11/07 07:09:10;;;;;;;;;17.25;14.75;;;;;12.40;66.72;101837.94;5059646;28;45269;-67
2021/11/07 07:11:44;;;;;;;;;14.00;13.50;;;;;12.40;66.49;101832.59;5060699;28;46083;-67
2021/11/07 07:14:17;;;;;;;;;13.75;13.75;;;;;12.41;66.62;101837.00;5076482;28;45766;-67
2021/11/07 07:34:54;;;;;;;;;14.75;14.00;;;;;12.48;66.84;101838.66;5060726;28;45528;-67
2021/11/07 07:37:20;;;;;;;;;18.50;18.00;;;;;12.47;66.56;101841.38;5060601;28;45450;-67
2021/11/07 07:39:46;;;;;;;;;16.50;14.25;;;;;12.47;66.69;101847.59;5060422;28;45323;-65
2021/11/07 07:42:12;;;;;;;;;19.00;18.25;;;;;12.47;66.95;101852.97;5059078;28;46978;-64
2021/11/07 07:44:37;;;;;;;;;15.50;14.25;;;;;12.47;67.23;101842.25;5060625;28;45228;-65
2021/11/07 07:47:03;;;;;;;;;18.25;16.50;;;;;12.47;66.83;101841.38;5052136;28;45447;-65
2021/11/07 07:49:29;;;;;;;;;13.75;13.25;;;;;12.49;67.01;101843.09;5060158;28;45442;-65
2021/11/07 07:51:55;;;;;;;;;15.75;13.75;;;;;12.50;66.81;101854.69;5055534;28;47191;-65
2021/11/07 07:54:22;;;;;;;;;20.25;14.75;;;;;12.54;67.28;101859.94;5052596;28;45580;-65
2021/11/07 07:56:48;;;;;;;;;11.50;9.50;;;;;12.53;67.25;101852.81;5053236;28;45446;-65
2021/11/07 07:59:15;;;;;;;;;14.50;14.00;;;;;12.53;67.16;101852.81;5053087;28;45645;-65
2021/11/07 08:01:41;;;;;;;;;18.00;15.75;;;;;12.55;67.17;101840.28;5059790;28;45364;-65
2021/11/07 08:04:06;;;;;;;;;15.25;15.25;;;;;12.57;67.03;101846.47;5060301;28;45267;-65
2021/11/07 08:06:32;;;;;;;;;18.00;15.00;;;;;12.58;67.19;101840.22;5060213;28;45542;-65
2021/11/07 08:08:58;;;;;;;;;13.00;12.25;;;;;12.58;67.15;101842.00;5058806;28;45485;-65
2021/11/07 08:11:23;;;;;;;;;14.75;14.75;;;;;12.58;67.37;101842.88;5059770;28;45333;-65
2021/11/07 08:13:51;;;;;;;;;16.00;15.00;;;;;12.59;67.22;101855.34;5060126;28;45302;-65
2021/11/07 08:16:18;;;;;;;;;16.25;16.25;;;;;12.58;67.28;101845.56;5059798;28;45465;-65
2021/11/07 08:18:43;;;;;;;;;19.25;15.50;;;;;12.62;67.28;101857.09;5059533;28;45321;-65
2021/11/07 08:21:09;;;;;;;;;16.25;14.75;;;;;12.62;67.37;101857.09;5059734;28;45302;-65
2021/11/07 08:23:35;;;;;;;;;15.25;15.00;;;;;12.62;67.07;101857.09;5052253;28;45358;-67
2021/11/07 08:26:02;;;;;;;;;19.00;17.50;;;;;12.62;67.34;101851.72;5059972;28;45516;-66
2021/11/07 08:28:28;;;;;;;;;16.25;14.75;;;;;12.59;67.52;101844.63;5059846;28;45242;-66
2021/11/07 08:30:55;;;;;;;;;18.50;14.75;;;;;12.62;67.33;101842.81;5059372;28;45895;-66
2021/11/07 08:33:21;;;;;;;;;17.00;15.50;;;;;12.61;67.50;101844.59;5059387;28;45450;-67
2021/11/07 08:35:47;;;;;;;;;16.75;16.25;;;;;12.64;67.46;101846.34;5060000;28;45329;-67
2021/11/07 08:38:26;;;;;;;;;13.50;13.50;;;;;12.64;67.50;101838.31;5059535;28;45397;-66
2021/11/07 08:40:54;;;;;;;;;20.00;17.25;;;;;12.64;67.80;101825.78;5058134;28;47199;-66
2021/11/07 09:05:09;;;;;;;;;16.25;13.50;;;;;12.67;67.86;101800.72;5046541;28;45496;-66
2021/11/07 09:10:22;;;;;;;;;14.75;14.75;;;;;12.72;68.25;101812.22;5056173;28;45526;-66
2021/11/07 09:12:50;;;;;;;;;18.75;16.00;;;;;12.74;68.23;101803.19;5058681;28;46150;-65
2021/11/07 09:15:19;;;;;;;;;16.25;15.50;;;;;12.76;68.37;101806.75;5058923;28;45596;-66
2021/11/07 09:17:46;;;;;;;;;15.00;15.00;;;;;12.77;68.25;101812.97;5054992;28;45366;-66
2021/11/07 09:20:23;;;;;;;;;14.25;14.25;;;;;12.77;68.60;101810.31;5059274;28;45238;-67
2021/11/07 09:22:57;;;;;;;;;15.00;15.00;;;;;12.78;68.27;101802.22;5057281;28;46472;-67
2021/11/07 09:25:30;;;;;;;;;16.00;15.50;;;;;12.81;68.44;101820.00;5058877;28;45382;-67
2021/11/07 09:33:10;;;;;;;;;15.25;15.00;;;;;12.85;68.75;101808.31;5062167;28;45461;-68
2021/11/07 09:38:28;;;;;;;;;14.50;13.75;;;;;12.89;68.86;101812.66;5056532;28;45310;-64
2021/11/07 09:43:44;;;;;;;;;12.50;12.50;;;;;12.95;69.32;101806.28;5062173;28;45966;-71
2021/11/07 09:46:19;;;;;;;;;15.25;14.25;;;;;12.96;69.09;101810.72;5056101;28;45473;-68
2021/11/07 09:48:51;;;;;;;;;15.25;14.50;;;;;13.00;69.08;101820.44;5050068;28;45364;-67
2021/11/07 09:51:19;;;;;;;;;13.25;11.25;;;;;13.03;69.22;101808.75;5058961;28;45306;-71
2021/11/07 09:53:51;;;;;;;;;15.50;14.75;;;;;13.05;69.38;101809.63;5059314;28;45493;-72
2021/11/07 09:56:16;;;;;;;;;15.50;14.50;;;;;13.08;69.47;101818.47;5061876;28;45778;-71
2021/11/07 09:58:46;;;;;;;;;14.75;10.75;;;;;13.11;69.28;101829.09;5062422;28;45353;-64
2021/11/07 10:01:11;;;;;;;;;8.25;8.25;;;;;13.14;69.20;101834.38;5061571;28;45422;-64
2021/11/07 10:03:41;;;;;;;;;7.00;6.00;;;;;13.19;69.84;101823.53;5061792;28;45344;-66
2021/11/07 10:06:37;;;;;;;;;6.50;6.50;;;;;13.22;69.62;101823.44;5061826;28;45303;-74
2021/11/07 10:09:06;;;;;;;;;3.50;3.50;;;;;13.30;69.47;101823.25;5062174;28;45413;-67
2021/11/07 10:11:42;;;;;;;;;5.75;5.50;;;;;13.34;69.88;101824.97;5050769;28;45623;-64
2021/11/07 10:14:16;;;;;;;;;6.00;6.00;;;;;13.39;69.64;101832.88;5061758;28;46963;-66
2021/11/07 10:16:53;;;;;;;;;6.50;5.25;;;;;13.40;69.68;101819.44;5061723;28;45496;-64
2021/11/07 10:19:38;;;;;;;;;6.00;5.00;;;;;13.46;70.05;101829.09;5061579;28;45556;-71
2021/11/07 10:22:04;;;;;;;;;6.25;6.25;;;;;13.51;69.90;101828.09;5061300;28;45621;-65
2021/11/07 10:24:34;;;;;;;;;6.00;5.25;;;;;13.55;69.83;101836.03;5061757;28;45899;-68
2021/11/07 10:27:03;;;;;;;;;4.50;4.25;;;;;13.56;69.49;101824.38;5057720;28;45479;-66
2021/11/07 10:29:31;;;;;;;;;6.00;5.00;;;;;13.59;69.83;101832.34;5061710;28;45261;-67
2021/11/07 10:32:19;;;;;;;;;7.75;6.00;;;;;13.57;69.56;101824.34;5061124;28;45369;-68
2021/11/07 10:53:51;;;;;;;;;6.50;6.00;;;;;13.85;68.24;101853.97;5054396;28;45499;-69
2021/11/07 10:56:18;;;;;;;;;5.50;4.00;;;;;13.84;68.42;101841.47;5058116;28;46461;-69
2021/11/07 10:58:48;;;;;;;;;4.00;4.00;;;;;13.83;68.27;101845.09;5058315;28;45326;-69
2021/11/07 11:01:19;;;;;;;;;6.00;5.00;;;;;13.89;67.94;101842.19;5059240;28;45819;-69
2021/11/07 11:03:59;;;;;;;;;5.00;5.00;;;;;13.90;68.12;101835.06;5065478;28;45556;-69
2021/11/07 11:06:25;;;;;;;;;5.00;5.00;;;;;13.97;67.90;101833.06;5046055;28;47452;-69
2021/11/07 11:11:44;;;;;;;;;7.00;4.00;;;;;14.01;67.80;101835.59;5059838;28;45444;-69
2021/11/07 11:16:54;;;;;;;;;3.50;3.00;;;;;14.08;67.45;101820.19;5059307;28;45964;-68
2021/11/07 11:27:50;;;;;;;;;5.75;4.00;;;;;14.04;67.45;101789.88;5059485;28;45437;-70
2021/11/07 11:33:14;;;;;;;;;4.50;3.75;;;;;14.12;67.05;101803.06;5053488;28;45531;-69
2021/11/07 11:40:55;;;;;;;;;4.25;4.00;;;;;14.09;66.64;101790.63;5049101;28;45739;-70
2021/11/07 11:43:30;;;;;;;;;4.00;3.75;;;;;14.11;66.70;101800.44;5057917;28;45537;-70
2021/11/07 11:46:06;;;;;;;;;2.00;2.00;;;;;14.07;66.73;101794.28;5059802;28;46471;-69
2021/11/07 11:56:50;;;;;;;;;4.75;4.00;;;;;14.12;66.01;101794.16;5036339;28;45374;-69
2021/11/07 11:59:34;;;;;;;;;2.75;2.00;;;;;14.09;65.75;101798.66;5053542;28;47556;-69
2021/11/07 12:02:43;;;;;;;;;3.75;2.00;;;;;14.09;65.70;101792.44;5059411;28;45502;-70
2021/11/07 12:08:07;;;;;;;;;6.25;6.25;;;;;14.11;65.41;101795.06;5046224;28;45365;-69
2021/11/07 12:10:38;;;;;;;;;4.25;4.00;;;;;14.14;65.39;101794.97;5051266;28;46146;-69
2021/11/07 12:13:25;;;;;;;;;4.75;4.00;;;;;14.20;65.46;101797.44;5059118;28;45619;-70
2021/11/07 12:15:53;;;;;;;;;6.50;4.00;;;;;14.21;65.18;101794.72;5058307;28;45550;-69
2021/11/07 12:18:19;;;;;;;;;5.25;3.50;;;;;14.25;65.11;101800.91;5058413;28;45355;-69
2021/11/07 12:20:55;;;;;;;;;6.00;5.75;;;;;14.27;64.72;101796.38;5058639;28;45344;-69
2021/11/07 12:23:28;;;;;;;;;4.00;4.00;;;;;14.30;64.76;101787.31;5056834;28;45304;-69
2021/11/07 12:25:56;;;;;;;;;5.00;4.00;;;;;14.34;64.62;101787.19;5058887;28;45365;-69
2021/11/07 12:28:42;;;;;;;;;6.25;4.75;;;;;14.29;64.44;101764.97;5058794;28;45993;-69
2021/11/07 12:31:07;;;;;;;;;4.00;3.50;;;;;14.36;63.97;101785.31;5044461;28;46187;-69
2021/11/07 12:33:58;;;;;;;;;4.25;4.25;;;;;14.32;64.07;101775.59;5056941;28;45951;-70
2021/11/07 12:41:36;;;;;;;;;6.00;4.00;;;;;14.31;62.97;101784.59;5058455;28;45723;-70
2021/11/07 12:44:04;;;;;;;;;4.25;3.00;;;;;14.35;63.20;101779.97;5058591;28;45323;-70
2021/11/07 12:49:15;;;;;;;;;7.00;3.75;;;;;14.36;63.01;101782.63;5058356;28;45411;-70
2021/11/07 12:51:49;;;;;;;;;5.25;5.25;;;;;14.38;62.91;101780.78;5048612;28;46116;-70
2021/11/07 12:54:17;;;;;;;;;7.50;5.00;;;;;14.39;62.77;101777.16;5064953;27;45376;-70
2021/11/07 12:57:05;;;;;;;;;5.50;4.00;;;;;14.37;62.97;101762.91;5058575;28;45509;-71
2021/11/07 12:59:40;;;;;;;;;5.50;4.00;;;;;14.40;62.19;101765.50;5062809;28;45527;-70
2021/11/07 13:02:08;;;;;;;;;4.50;3.25;;;;;14.41;61.88;101758.31;5058364;28;45484;-70
2021/11/07 13:04:42;;;;;;;;;8.25;5.50;;;;;14.40;62.15;101770.88;5059601;28;45534;-70
2021/11/07 13:07:10;;;;;;;;;5.50;4.00;;;;;14.38;61.83;101778.13;5061785;28;45329;-72
2021/11/07 13:09:43;;;;;;;;;4.00;3.00;;;;;14.40;61.85;101783.41;5061392;28;45880;-70
2021/11/07 13:12:37;;;;;;;;;6.25;3.00;;;;;14.42;62.23;101785.13;5049346;28;47198;-70
2021/11/07 13:15:25;;;;;;;;;4.00;4.00;;;;;14.44;62.02;101782.41;5052418;28;45257;-71
2021/11/07 13:29:35;;;;;;;;;3.00;2.25;;;;;14.48;60.96;101767.06;5050384;28;45398;-70
2021/11/07 13:35:07;;;;;;;;;6.00;3.50;;;;;14.51;60.64;101772.34;5057189;28;46761;-71
2021/11/07 13:37:45;;;;;;;;;4.75;2.75;;;;;14.51;60.77;101767.81;5061073;28;45390;-71
2021/11/07 13:40:14;;;;;;;;;6.00;5.00;;;;;14.54;60.81;101772.25;5062593;28;45265;-71
2021/11/07 13:42:43;;;;;;;;;6.50;5.00;;;;;14.54;60.48;101770.41;5062022;28;45251;-69
2021/11/07 13:45:17;;;;;;;;;6.50;3.75;;;;;14.55;59.89;101769.50;5061796;28;45970;-69
2021/11/07 13:47:44;;;;;;;;;4.75;3.00;;;;;14.55;59.87;101765.91;5057326;28;45554;-69
2021/11/07 13:50:19;;;;;;;;;4.75;3.00;;;;;14.53;60.20;101755.22;5062556;28;45403;-70
2021/11/07 13:52:46;;;;;;;;;3.75;3.00;;;;;14.54;59.88;101757.00;5062374;28;45352;-69
2021/11/07 13:55:34;;;;;;;;;3.00;3.00;;;;;14.56;59.74;101754.25;5054848;28;46359;-70